createdAt,value
2023-01-19T00:02:42.118Z,98977.19
2023-01-19T00:05:44.743Z,98980.53
2023-01-19T00:08:48.992Z,98980.69
2023-01-19T00:11:51.407Z,98978.75
2023-01-19T00:14:53.540Z,98972.44
2023-01-19T00:17:55.791Z,98974.53
2023-01-19T00:21:00.524Z,98978.28
2023-01-19T00:24:02.900Z,98974.53
2023-01-19T00:27:04.919Z,98974.25
2023-01-19T00:30:08.025Z,98966.47
2023-01-19T00:33:11.580Z,98972.78
2023-01-19T00:36:13.845Z,98971.50
2023-01-19T00:39:16.298Z,98971.66
2023-01-19T00:42:36.598Z,98972.97
2023-01-19T00:45:38.677Z,98987.41
2023-01-19T00:48:41.365Z,98976.53
2023-01-19T00:51:44.589Z,98972.34
2023-01-19T00:54:46.958Z,98973.00
2023-01-19T00:57:49.441Z,98971.25
2023-01-19T01:00:53.937Z,98959.91
2023-01-19T01:03:56.260Z,98963.31
2023-01-19T01:07:01.309Z,98963.63
2023-01-19T01:10:03.911Z,98953.91
2023-01-19T01:13:20.488Z,98951.81
2023-01-19T01:16:23.381Z,98943.03
2023-01-19T01:19:25.914Z,98947.63
2023-01-19T01:22:28.295Z,98960.72
2023-01-19T01:25:31.759Z,98964.31
2023-01-19T01:28:33.908Z,98961.75
2023-01-19T01:31:38.861Z,98960.25
2023-01-19T01:34:41.599Z,98957.38
2023-01-19T01:37:44.060Z,98957.03
2023-01-19T01:40:46.333Z,98952.50
2023-01-19T01:43:57.602Z,98955.09
2023-01-19T01:47:00.160Z,98949.91
2023-01-19T01:50:22.463Z,98963.06
2023-01-19T01:53:24.728Z,98960.13
2023-01-19T01:56:34.572Z,98959.31
2023-01-19T01:59:42.595Z,98979.72
2023-01-19T02:02:51.455Z,98983.63
2023-01-19T02:05:59.532Z,98992.69
2023-01-19T02:09:29.202Z,98995.94
2023-01-19T02:12:49.969Z,98993.34
2023-01-19T02:16:01.154Z,98970.84
2023-01-19T02:19:05.869Z,98937.78
2023-01-19T02:22:18.059Z,98931.97
2023-01-19T02:25:21.951Z,98961.78
2023-01-19T02:28:26.149Z,98984.44
2023-01-19T02:31:32.191Z,99006.78
2023-01-19T02:34:35.443Z,99015.22
2023-01-19T02:37:41.525Z,98989.94
2023-01-19T02:40:46.091Z,98971.00
2023-01-19T02:43:50.035Z,98969.88
2023-01-19T02:46:54.710Z,98955.28
2023-01-19T02:50:00.928Z,98937.16
2023-01-19T02:53:47.658Z,98934.88
2023-01-19T02:56:49.708Z,98962.91
2023-01-19T03:00:18.145Z,98980.22
2023-01-19T03:03:32.889Z,98981.84
2023-01-19T03:07:10.736Z,98976.81
2023-01-19T03:10:20.715Z,98979.75
2023-01-19T03:13:54.042Z,98978.94
2023-01-19T03:17:01.323Z,98992.03
2023-01-19T03:20:05.940Z,99010.63
2023-01-19T03:23:11.373Z,99016.97
2023-01-19T03:26:19.248Z,99002.06
2023-01-19T03:29:24.978Z,98980.38
2023-01-19T03:32:36.454Z,98963.88
2023-01-19T03:35:45.056Z,98952.03
2023-01-19T03:38:51.091Z,98932.63
2023-01-19T03:41:58.871Z,98912.06
2023-01-19T03:45:02.058Z,98929.06
2023-01-19T03:48:05.749Z,98929.06
2023-01-19T03:51:09.737Z,98935.69
2023-01-19T03:54:12.299Z,98945.09
2023-01-19T03:57:14.550Z,98941.69
2023-01-19T04:00:18.243Z,98960.94
2023-01-19T04:03:20.628Z,98975.97
2023-01-19T04:06:27.022Z,98977.94
2023-01-19T04:09:29.703Z,98962.41
2023-01-19T04:12:32.659Z,98983.72
2023-01-19T04:15:34.771Z,98975.31
2023-01-19T04:18:37.616Z,98985.66
2023-01-19T04:21:40.284Z,98982.41
2023-01-19T04:24:45.271Z,98968.34
2023-01-19T04:27:47.426Z,98955.56
2023-01-19T04:30:55.062Z,98976.97
2023-01-19T04:33:57.259Z,98965.09
2023-01-19T04:37:02.315Z,98967.69
2023-01-19T04:40:04.977Z,98955.88
2023-01-19T04:43:09.935Z,98948.44
2023-01-19T04:46:11.970Z,98949.91
2023-01-19T04:49:16.344Z,98956.06
2023-01-19T04:52:18.311Z,98943.94
2023-01-19T04:55:20.253Z,98963.97
2023-01-19T04:58:22.483Z,98963.00
2023-01-19T05:01:24.972Z,98968.16
2023-01-19T05:04:27.389Z,98968.81
2023-01-19T05:07:29.435Z,98998.75
2023-01-19T05:10:31.466Z,99001.50
2023-01-19T05:13:36.530Z,98988.41
2023-01-19T05:16:38.517Z,98983.53
2023-01-19T05:19:41.710Z,99009.75
2023-01-19T05:22:48.977Z,99026.56
2023-01-19T05:25:50.955Z,99024.47
2023-01-19T05:28:53.161Z,99031.78
2023-01-19T05:31:55.186Z,99019.31
2023-01-19T05:34:57.292Z,99026.75
2023-01-19T05:37:59.165Z,99021.59
2023-01-19T05:41:03.038Z,99029.00
2023-01-19T05:44:06.585Z,99021.59
2023-01-19T05:47:11.021Z,99014.66
2023-01-19T05:50:13.036Z,98998.47
2023-01-19T05:53:16.747Z,99006.88
2023-01-19T05:56:18.703Z,99009.47
2023-01-19T05:59:25.878Z,98978.75
2023-01-19T06:02:30.186Z,98974.03
2023-01-19T06:05:33.053Z,98967.22
2023-01-19T06:08:50.299Z,98986.34
2023-01-19T06:12:01.634Z,98983.78
2023-01-19T06:15:04.065Z,98956.91
2023-01-19T06:18:06.317Z,98971.47
2023-01-19T06:21:10.277Z,98975.69
2023-01-19T06:24:13.833Z,98956.41
2023-01-19T06:27:17.659Z,98969.03
2023-01-19T06:30:20.354Z,98954.97
2023-01-19T06:33:24.307Z,98961.13
2023-01-19T06:36:31.019Z,98980.03
2023-01-19T06:39:33.273Z,99011.28
2023-01-19T06:42:35.678Z,99012.75
2023-01-19T06:45:44.089Z,99018.91
2023-01-19T06:48:48.577Z,99020.69
2023-01-19T06:52:06.849Z,99020.69
2023-01-19T06:55:16.576Z,98989.91
2023-01-19T06:58:20.368Z,99007.72
2023-01-19T07:01:24.244Z,99001.09
2023-01-19T07:04:30.818Z,99004.03
2023-01-19T07:11:33.447Z,98959.50
2023-01-19T07:19:47.848Z,98961.09
2023-01-19T07:23:03.687Z,99008.09
2023-01-19T07:26:15.683Z,99018.09
2023-01-19T07:29:58.059Z,99022.69
2023-01-19T07:33:04.100Z,99021.69
2023-01-19T07:36:09.361Z,99020.22
2023-01-19T07:39:13.524Z,98996.91
2023-01-19T07:46:57.822Z,99003.56
2023-01-19T07:50:58.607Z,99034.97
2023-01-19T07:54:23.505Z,99004.84
2023-01-19T07:57:26.152Z,99048.91
2023-01-19T08:16:47.437Z,99025.75
2023-01-19T08:20:08.388Z,99010.34
2023-01-19T08:23:36.366Z,99013.75
2023-01-19T08:31:57.692Z,99021.69
2023-01-19T08:45:16.579Z,99042.72
2023-01-19T08:48:27.861Z,99031.06
2023-01-19T09:01:25.197Z,99024.28
2023-01-19T09:05:01.375Z,99034.78
2023-01-19T09:18:35.005Z,99028.00
2023-01-19T09:26:20.477Z,99043.56
2023-01-19T09:29:41.086Z,99024.91
2023-01-19T09:33:12.479Z,99026.72
2023-01-19T09:36:28.647Z,99013.09
2023-01-19T09:39:48.479Z,99031.09
2023-01-19T09:43:30.766Z,99048.88
2023-01-19T09:47:02.411Z,99018.56
2023-01-19T09:54:19.486Z,99027.84
2023-01-19T09:57:40.482Z,99011.81
2023-01-19T10:00:59.310Z,99042.78
2023-01-19T10:04:54.176Z,99050.06
2023-01-19T10:17:40.468Z,99074.97
2023-01-19T10:21:27.880Z,99060.56
2023-01-19T10:25:13.077Z,99065.88
2023-01-19T10:28:46.877Z,99056.66
2023-01-19T10:32:13.590Z,99044.47
2023-01-19T10:35:49.225Z,99049.19
2023-01-19T10:42:42.748Z,99078.97
2023-01-19T10:45:50.616Z,99072.34
2023-01-19T10:49:14.584Z,99074.13
2023-01-19T10:52:33.989Z,99075.88
2023-01-19T10:56:20.493Z,99079.44
2023-01-19T10:59:45.891Z,99099.19
2023-01-19T11:03:09.213Z,99076.19
2023-01-19T11:06:49.896Z,99086.97
2023-01-19T11:10:24.286Z,99090.38
2023-01-19T11:17:41.693Z,99093.16
2023-01-19T11:21:06.931Z,99093.34
2023-01-19T11:24:28.392Z,99082.09
2023-01-19T11:29:06.820Z,99063.00
2023-01-19T11:32:41.510Z,99062.13
2023-01-19T11:37:01.044Z,99095.69
2023-01-19T11:40:48.896Z,99109.50
2023-01-19T11:45:03.749Z,99104.00
2023-01-19T11:50:07.069Z,99081.13
2023-01-19T11:53:37.220Z,99109.84
2023-01-19T12:01:08.599Z,99099.53
2023-01-19T12:04:41.487Z,99108.31
2023-01-19T12:08:31.024Z,99129.34
2023-01-19T12:16:15.606Z,99125.97
2023-01-19T12:24:28.287Z,99147.69
2023-01-19T12:27:51.450Z,99157.88
2023-01-19T12:31:35.540Z,99139.72
2023-01-19T12:35:05.341Z,99166.59
2023-01-19T12:38:58.426Z,99160.47
2023-01-19T12:42:38.072Z,99130.91
2023-01-19T12:50:41.259Z,99176.94
2023-01-19T12:58:20.577Z,99164.78
2023-01-19T13:02:22.781Z,99183.13
2023-01-19T13:05:33.629Z,99205.38
2023-01-19T13:09:07.691Z,99188.22
2023-01-19T13:12:22.373Z,99199.88
2023-01-19T13:15:55.893Z,99210.72
2023-01-19T13:19:24.898Z,99239.50
2023-01-19T13:23:34.434Z,99247.34
2023-01-19T13:27:02.457Z,99249.72
2023-01-19T13:31:24.169Z,99236.31
2023-01-19T13:34:47.463Z,99256.34
2023-01-19T13:37:52.480Z,99262.91
2023-01-19T13:41:00.707Z,99260.50
2023-01-19T13:44:36.742Z,99272.34
2023-01-19T13:47:53.327Z,99251.34
2023-01-19T13:51:02.806Z,99288.13
2023-01-19T13:54:17.289Z,99276.81
2023-01-19T13:57:42.919Z,99268.06
2023-01-19T14:00:47.819Z,99299.81
2023-01-19T14:03:52.651Z,99277.63
2023-01-19T14:07:15.261Z,99295.13
2023-01-19T14:10:18.215Z,99308.16
2023-01-19T14:13:35.436Z,99279.09
2023-01-19T14:16:46.961Z,99286.25
2023-01-19T14:19:58.698Z,99279.00
2023-01-19T14:23:41.751Z,99290.03
2023-01-19T14:26:54.324Z,99294.41
2023-01-19T14:30:20.922Z,99302.28
2023-01-19T14:33:55.693Z,99316.22
2023-01-19T14:36:58.462Z,99321.94
2023-01-19T14:40:13.927Z,99323.25
2023-01-19T14:46:55.734Z,99347.72
2023-01-19T14:50:07.969Z,99336.06
2023-01-19T14:53:20.499Z,99327.88
2023-01-19T14:56:28.653Z,99326.38
2023-01-19T14:59:32.142Z,99367.28
2023-01-19T15:02:34.910Z,99368.59
2023-01-19T15:05:38.887Z,99384.06
2023-01-19T15:08:42.691Z,99406.63
2023-01-19T15:11:49.357Z,99413.63
2023-01-19T15:14:51.340Z,99410.22
2023-01-19T15:17:56.042Z,99394.34
2023-01-19T15:21:03.123Z,99387.09
2023-01-19T15:24:06.058Z,99380.00
2023-01-19T15:27:11.975Z,99394.34
2023-01-19T15:30:21.914Z,99392.84
2023-01-19T15:33:27.297Z,99397.28
2023-01-19T15:36:31.625Z,99407.69
2023-01-19T15:39:33.845Z,99427.72
2023-01-19T15:42:36.126Z,99425.28
2023-01-19T15:45:50.889Z,99418.94
2023-01-19T15:48:54.090Z,99419.97
2023-01-19T15:51:57.463Z,99441.34
2023-01-19T15:54:59.886Z,99440.53
2023-01-19T15:58:01.756Z,99447.88
2023-01-19T16:01:04.091Z,99462.19
2023-01-19T16:04:08.118Z,99486.50
2023-01-19T16:07:10.256Z,99484.91
2023-01-19T16:10:12.920Z,99477.28
2023-01-19T16:13:15.029Z,99483.53
2023-01-19T16:16:20.074Z,99498.22
2023-01-19T16:19:22.390Z,99513.06
2023-01-19T16:22:33.149Z,99508.19
2023-01-19T16:25:56.484Z,99512.69
2023-01-19T16:29:08.974Z,99529.63
2023-01-19T16:32:11.220Z,99530.31
2023-01-19T16:35:18.490Z,99553.19
2023-01-19T16:38:25.667Z,99548.13
2023-01-19T16:41:29.207Z,99569.66
2023-01-19T16:44:31.243Z,99575.50
2023-01-19T16:47:34.947Z,99576.72
2023-01-19T16:50:36.940Z,99583.78
2023-01-19T16:53:39.289Z,99581.88
2023-01-19T16:56:42.033Z,99591.25
2023-01-19T16:59:45.231Z,99591.13
2023-01-19T17:02:47.264Z,99595.19
2023-01-19T17:05:52.170Z,99595.78
2023-01-19T17:08:54.601Z,99604.63
2023-01-19T17:11:58.405Z,99615.91
2023-01-19T17:15:02.408Z,99613.75
2023-01-19T17:18:05.198Z,99625.16
2023-01-19T17:21:11.680Z,99636.88
2023-01-19T17:24:14.040Z,99644.25
2023-01-19T17:27:17.230Z,99637.31
2023-01-19T17:30:20.430Z,99645.19
2023-01-19T17:33:24.071Z,99649.81
2023-01-19T17:36:27.763Z,99646.03
2023-01-19T17:39:31.087Z,99635.41
2023-01-19T17:42:33.038Z,99644.81
2023-01-19T17:45:36.573Z,99648.19
2023-01-19T17:48:39.278Z,99648.47
2023-01-19T17:51:41.666Z,99655.00
2023-01-19T17:54:47.237Z,99655.44
2023-01-19T17:57:49.643Z,99660.31
2023-01-19T18:00:51.915Z,99665.06
2023-01-19T18:03:54.949Z,99657.31
2023-01-19T18:06:57.235Z,99661.97
2023-01-19T18:10:01.066Z,99648.75
2023-01-19T18:13:03.412Z,99668.50
2023-01-19T18:16:08.784Z,99665.91
2023-01-19T18:19:11.480Z,99671.63
2023-01-19T18:22:14.127Z,99675.69
2023-01-19T18:25:17.552Z,99673.94
2023-01-19T18:28:21.530Z,99674.75
2023-01-19T18:31:25.079Z,99675.47
2023-01-19T18:34:27.443Z,99681.81
2023-01-19T18:37:30.113Z,99691.63
2023-01-19T18:40:32.725Z,99688.78
2023-01-19T18:43:35.039Z,99691.38
2023-01-19T18:46:41.832Z,99689.72
2023-01-19T18:49:44.615Z,99684.56
2023-01-19T18:52:48.148Z,99686.19
2023-01-19T18:55:58.706Z,99692.31
2023-01-19T18:59:05.139Z,99699.81
2023-01-19T19:02:09.503Z,99700.50
2023-01-19T19:05:12.014Z,99686.31
2023-01-19T19:08:15.593Z,99699.53
2023-01-19T19:11:19.896Z,99705.13
2023-01-19T19:14:22.340Z,99709.03
2023-01-19T19:17:25.088Z,99709.72
2023-01-19T19:20:28.506Z,99703.88
2023-01-19T19:23:31.682Z,99720.47
2023-01-19T19:26:34.920Z,99730.94
2023-01-19T19:29:36.868Z,99718.94
2023-01-19T19:32:39.528Z,99734.34
2023-01-19T19:35:41.883Z,99727.28
2023-01-19T19:38:47.752Z,99742.38
2023-01-19T19:41:51.148Z,99747.41
2023-01-19T19:44:54.997Z,99746.88
2023-01-19T19:47:57.666Z,99749.69
2023-01-19T19:51:18.606Z,99774.94
2023-01-19T19:54:21.738Z,99761.28
2023-01-19T19:57:26.239Z,99766.41
2023-01-19T20:00:28.537Z,99771.78
2023-01-19T20:03:31.190Z,99776.38
2023-01-19T20:06:38.631Z,99789.63
2023-01-19T20:09:40.845Z,99781.44
2023-01-19T20:12:43.860Z,99785.47
2023-01-19T20:15:46.018Z,99771.56
2023-01-19T20:18:54.317Z,99762.28
2023-01-19T20:21:58.148Z,99760.59
2023-01-19T20:25:00.699Z,99766.13
2023-01-19T20:28:02.895Z,99774.81
2023-01-19T20:31:14.860Z,99790.13
2023-01-19T20:34:19.428Z,99788.81
2023-01-19T20:37:21.778Z,99771.66
2023-01-19T20:40:24.033Z,99762.28
2023-01-19T20:43:26.302Z,99779.56
2023-01-19T20:46:28.552Z,99788.91
2023-01-19T20:49:31.409Z,99791.22
2023-01-19T20:52:36.031Z,99787.75
2023-01-19T20:55:39.211Z,99785.06
2023-01-19T20:58:42.180Z,99778.19
2023-01-19T21:01:45.099Z,99763.84
2023-01-19T21:04:47.890Z,99768.56
2023-01-19T21:07:50.991Z,99780.91
2023-01-19T21:10:57.068Z,99793.47
2023-01-19T21:13:59.360Z,99797.56
2023-01-19T21:17:01.572Z,99796.03
2023-01-19T21:20:05.313Z,99794.84
2023-01-19T21:23:07.521Z,99799.81
2023-01-19T21:26:09.677Z,99800.56
2023-01-19T21:29:14.652Z,99797.94
2023-01-19T21:32:16.805Z,99819.28
2023-01-19T21:35:18.632Z,99817.91
2023-01-19T21:38:21.696Z,99831.50
2023-01-19T21:41:23.959Z,99843.47
2023-01-19T21:44:26.048Z,99846.94
2023-01-19T21:47:28.065Z,99868.09
2023-01-19T21:50:30.050Z,99887.44
2023-01-19T21:53:31.933Z,99903.59
2023-01-19T21:56:35.162Z,99921.00
2023-01-19T21:59:37.500Z,99913.41
2023-01-19T22:02:39.586Z,99889.50
2023-01-19T22:05:42.411Z,99866.28
2023-01-19T22:08:46.732Z,99856.00
2023-01-19T22:11:48.883Z,99862.25
2023-01-19T22:14:51.301Z,99873.69
2023-01-19T22:17:53.619Z,99878.56
2023-01-19T22:20:55.767Z,99878.97
2023-01-19T22:23:59.999Z,99861.47
2023-01-19T22:27:02.007Z,99867.72
2023-01-19T22:30:04.276Z,99872.91
2023-01-19T22:33:06.884Z,99878.25
2023-01-19T22:36:17.472Z,99874.72
2023-01-19T22:39:22.134Z,99861.72
2023-01-19T22:42:24.145Z,99856.81
2023-01-19T22:45:26.169Z,99853.22
2023-01-19T22:48:28.182Z,99863.97
2023-01-19T22:51:32.073Z,99867.66
2023-01-19T22:54:34.027Z,99858.59
2023-01-19T22:57:36.710Z,99856.34
2023-01-19T23:00:38.957Z,99855.91
2023-01-19T23:03:41.932Z,99846.63
2023-01-19T23:06:47.028Z,99847.47
2023-01-19T23:09:49.042Z,99837.84
2023-01-19T23:12:51.067Z,99832.44
2023-01-19T23:15:53.037Z,99821.22
2023-01-19T23:18:57.223Z,99814.72
2023-01-19T23:21:59.781Z,99811.03
2023-01-19T23:25:01.736Z,99806.69
2023-01-19T23:28:03.792Z,99814.56
2023-01-19T23:31:22.910Z,99826.81
2023-01-19T23:34:24.894Z,99833.69
2023-01-19T23:37:28.262Z,99837.34
2023-01-19T23:40:30.552Z,99835.44
2023-01-19T23:43:33.911Z,99847.97
2023-01-19T23:46:36.069Z,99853.72
2023-01-19T23:49:40.259Z,99858.81
2023-01-19T23:52:42.939Z,99858.47
2023-01-19T23:55:44.888Z,99857.66
2023-01-19T23:58:51.844Z,99854.06
